sensor_id;sensor_type;location;lat;lon;timestamp;P1;durP1;ratioP1;P2;durP2;ratioP2
28427;SDS011;15662;49.128;8.520;2023-03-16T00:02:13;10.88;;;8.68;;
28427;SDS011;15662;49.128;8.520;2023-03-16T00:04:57;9.82;;;8.77;;
28427;SDS011;15662;49.128;8.520;2023-03-16T00:15:08;12.65;;;8.52;;
28427;SDS011;15662;49.128;8.520;2023-03-16T00:17:36;10.50;;;8.50;;
28427;SDS011;15662;49.128;8.520;2023-03-16T00:20:04;11.07;;;9.48;;
28427;SDS011;15662;49.128;8.520;2023-03-16T00:22:33;12.40;;;9.25;;
28427;SDS011;15662;49.128;8.520;2023-03-16T00:25:01;11.20;;;8.77;;
28427;SDS011;15662;49.128;8.520;2023-03-16T00:27:30;10.93;;;8.95;;
28427;SDS011;15662;49.128;8.520;2023-03-16T00:29:58;12.52;;;9.10;;
28427;SDS011;15662;49.128;8.520;2023-03-16T00:32:27;10.95;;;8.45;;
28427;SDS011;15662;49.128;8.520;2023-03-16T00:34:58;13.48;;;9.20;;
28427;SDS011;15662;49.128;8.520;2023-03-16T00:37:30;12.13;;;9.05;;
28427;SDS011;15662;49.128;8.520;2023-03-16T00:40:03;11.07;;;8.18;;
28427;SDS011;15662;49.128;8.520;2023-03-16T00:42:34;10.85;;;8.70;;
28427;SDS011;15662;49.128;8.520;2023-03-16T00:45:02;9.65;;;8.60;;
28427;SDS011;15662;49.128;8.520;2023-03-16T00:47:33;11.88;;;8.50;;
28427;SDS011;15662;49.128;8.520;2023-03-16T00:50:02;10.80;;;8.80;;
28427;SDS011;15662;49.128;8.520;2023-03-16T00:52:30;9.55;;;8.23;;
28427;SDS011;15662;49.128;8.520;2023-03-16T00:54:58;11.82;;;8.60;;
28427;SDS011;15662;49.128;8.520;2023-03-16T00:57:26;9.68;;;8.02;;
28427;SDS011;15662;49.128;8.520;2023-03-16T00:59:56;10.38;;;8.13;;
28427;SDS011;15662;49.128;8.520;2023-03-16T01:02:25;10.00;;;7.97;;
28427;SDS011;15662;49.128;8.520;2023-03-16T01:04:53;11.68;;;8.93;;
28427;SDS011;15662;49.128;8.520;2023-03-16T01:07:21;9.18;;;8.20;;
28427;SDS011;15662;49.128;8.520;2023-03-16T01:09:50;13.68;;;8.15;;
28427;SDS011;15662;49.128;8.520;2023-03-16T01:12:18;11.05;;;8.40;;
28427;SDS011;15662;49.128;8.520;2023-03-16T01:14:46;10.50;;;8.05;;
28427;SDS011;15662;49.128;8.520;2023-03-16T01:17:15;9.10;;;7.35;;
28427;SDS011;15662;49.128;8.520;2023-03-16T01:19:44;9.55;;;7.85;;
28427;SDS011;15662;49.128;8.520;2023-03-16T01:22:12;11.10;;;8.20;;
28427;SDS011;15662;49.128;8.520;2023-03-16T01:24:41;11.30;;;8.30;;
28427;SDS011;15662;49.128;8.520;2023-03-16T01:27:13;10.80;;;8.23;;
28427;SDS011;15662;49.128;8.520;2023-03-16T01:29:42;11.52;;;8.63;;
28427;SDS011;15662;49.128;8.520;2023-03-16T01:32:11;10.63;;;8.30;;
28427;SDS011;15662;49.128;8.520;2023-03-16T01:34:40;9.77;;;8.00;;
28427;SDS011;15662;49.128;8.520;2023-03-16T01:37:08;10.10;;;8.32;;
28427;SDS011;15662;49.128;8.520;2023-03-16T01:39:59;11.23;;;8.73;;
28427;SDS011;15662;49.128;8.520;2023-03-16T01:42:27;9.95;;;8.30;;
28427;SDS011;15662;49.128;8.520;2023-03-16T01:44:56;9.27;;;8.25;;
28427;SDS011;15662;49.128;8.520;2023-03-16T01:47:35;13.00;;;8.80;;
28427;SDS011;15662;49.128;8.520;2023-03-16T01:50:09;11.98;;;9.10;;
28427;SDS011;15662;49.128;8.520;2023-03-16T01:52:39;13.50;;;9.73;;
28427;SDS011;15662;49.128;8.520;2023-03-16T01:55:08;10.75;;;8.90;;
28427;SDS011;15662;49.128;8.520;2023-03-16T01:57:42;12.88;;;9.05;;
28427;SDS011;15662;49.128;8.520;2023-03-16T02:00:19;12.25;;;8.65;;
28427;SDS011;15662;49.128;8.520;2023-03-16T02:03:14;12.38;;;9.27;;
28427;SDS011;15662;49.128;8.520;2023-03-16T02:05:57;11.32;;;8.23;;
28427;SDS011;15662;49.128;8.520;2023-03-16T02:08:43;12.13;;;8.63;;
28427;SDS011;15662;49.128;8.520;2023-03-16T02:11:13;11.68;;;9.60;;
28427;SDS011;15662;49.128;8.520;2023-03-16T02:13:59;12.50;;;9.60;;
28427;SDS011;15662;49.128;8.520;2023-03-16T02:16:33;12.07;;;9.63;;
28427;SDS011;15662;49.128;8.520;2023-03-16T02:19:02;14.48;;;9.88;;
28427;SDS011;15662;49.128;8.520;2023-03-16T02:21:34;12.30;;;10.30;;
28427;SDS011;15662;49.128;8.520;2023-03-16T02:26:44;12.30;;;9.25;;
28427;SDS011;15662;49.128;8.520;2023-03-16T02:32:51;11.45;;;9.82;;
28427;SDS011;15662;49.128;8.520;2023-03-16T02:35:21;11.82;;;10.20;;
28427;SDS011;15662;49.128;8.520;2023-03-16T02:37:50;16.25;;;10.50;;
28427;SDS011;15662;49.128;8.520;2023-03-16T02:42:55;11.90;;;10.10;;
28427;SDS011;15662;49.128;8.520;2023-03-16T02:45:38;12.43;;;10.38;;
28427;SDS011;15662;49.128;8.520;2023-03-16T02:48:22;16.40;;;11.70;;
28427;SDS011;15662;49.128;8.520;2023-03-16T02:51:09;9.43;;;7.50;;
28427;SDS011;15662;49.128;8.520;2023-03-16T02:53:37;12.02;;;10.65;;
28427;SDS011;15662;49.128;8.520;2023-03-16T02:56:05;13.90;;;10.75;;
28427;SDS011;15662;49.128;8.520;2023-03-16T02:58:35;14.45;;;10.98;;
28427;SDS011;15662;49.128;8.520;2023-03-16T03:01:09;12.90;;;10.65;;
28427;SDS011;15662;49.128;8.520;2023-03-16T03:03:38;12.90;;;10.95;;
28427;SDS011;15662;49.128;8.520;2023-03-16T03:06:06;14.80;;;11.15;;
28427;SDS011;15662;49.128;8.520;2023-03-16T03:08:36;12.85;;;11.20;;
28427;SDS011;15662;49.128;8.520;2023-03-16T03:11:04;14.43;;;11.15;;
28427;SDS011;15662;49.128;8.520;2023-03-16T03:13:32;14.23;;;11.00;;
28427;SDS011;15662;49.128;8.520;2023-03-16T03:16:00;14.90;;;11.50;;
28427;SDS011;15662;49.128;8.520;2023-03-16T03:18:28;12.98;;;11.15;;
28427;SDS011;15662;49.128;8.520;2023-03-16T03:20:56;13.05;;;10.85;;
28427;SDS011;15662;49.128;8.520;2023-03-16T03:23:24;14.10;;;11.35;;
28427;SDS011;15662;49.128;8.520;2023-03-16T03:25:55;12.50;;;11.00;;
28427;SDS011;15662;49.128;8.520;2023-03-16T03:28:29;14.25;;;11.20;;
28427;SDS011;15662;49.128;8.520;2023-03-16T03:31:00;13.43;;;10.82;;
28427;SDS011;15662;49.128;8.520;2023-03-16T03:33:28;14.73;;;11.25;;
28427;SDS011;15662;49.128;8.520;2023-03-16T03:35:57;12.80;;;11.27;;
28427;SDS011;15662;49.128;8.520;2023-03-16T03:38:29;12.18;;;10.35;;
28427;SDS011;15662;49.128;8.520;2023-03-16T03:40:58;14.13;;;11.05;;
28427;SDS011;15662;49.128;8.520;2023-03-16T03:43:30;12.23;;;10.77;;
28427;SDS011;15662;49.128;8.520;2023-03-16T03:45:58;16.70;;;11.00;;
28427;SDS011;15662;49.128;8.520;2023-03-16T03:48:30;14.23;;;10.95;;
28427;SDS011;15662;49.128;8.520;2023-03-16T03:50:58;13.73;;;10.80;;
28427;SDS011;15662;49.128;8.520;2023-03-16T03:53:43;14.10;;;11.13;;
28427;SDS011;15662;49.128;8.520;2023-03-16T03:56:11;14.65;;;11.30;;
28427;SDS011;15662;49.128;8.520;2023-03-16T03:58:39;12.90;;;10.77;;
28427;SDS011;15662;49.128;8.520;2023-03-16T04:01:07;13.35;;;10.55;;
28427;SDS011;15662;49.128;8.520;2023-03-16T04:03:35;14.98;;;10.95;;
28427;SDS011;15662;49.128;8.520;2023-03-16T04:06:05;13.60;;;11.15;;
28427;SDS011;15662;49.128;8.520;2023-03-16T04:08:36;14.57;;;11.88;;
28427;SDS011;15662;49.128;8.520;2023-03-16T04:11:08;14.57;;;11.27;;
28427;SDS011;15662;49.128;8.520;2023-03-16T04:13:35;14.43;;;11.50;;
28427;SDS011;15662;49.128;8.520;2023-03-16T04:16:04;14.80;;;11.70;;
28427;SDS011;15662;49.128;8.520;2023-03-16T04:18:39;21.33;;;11.10;;
28427;SDS011;15662;49.128;8.520;2023-03-16T04:21:11;14.35;;;11.43;;
28427;SDS011;15662;49.128;8.520;2023-03-16T04:23:47;15.15;;;11.43;;
28427;SDS011;15662;49.128;8.520;2023-03-16T04:26:16;13.80;;;11.50;;
28427;SDS011;15662;49.128;8.520;2023-03-16T04:28:46;14.32;;;11.70;;
28427;SDS011;15662;49.128;8.520;2023-03-16T04:31:17;17.13;;;11.95;;
28427;SDS011;15662;49.128;8.520;2023-03-16T04:33:47;15.55;;;11.75;;
28427;SDS011;15662;49.128;8.520;2023-03-16T04:36:15;14.77;;;12.18;;
28427;SDS011;15662;49.128;8.520;2023-03-16T04:38:43;18.27;;;12.25;;
28427;SDS011;15662;49.128;8.520;2023-03-16T04:41:12;15.10;;;12.82;;
28427;SDS011;15662;49.128;8.520;2023-03-16T04:43:48;18.33;;;13.70;;
28427;SDS011;15662;49.128;8.520;2023-03-16T04:46:19;17.42;;;13.77;;
28427;SDS011;15662;49.128;8.520;2023-03-16T04:48:48;17.02;;;13.52;;
28427;SDS011;15662;49.128;8.520;2023-03-16T04:51:16;14.85;;;12.07;;
28427;SDS011;15662;49.128;8.520;2023-03-16T04:53:57;13.52;;;11.95;;
28427;SDS011;15662;49.128;8.520;2023-03-16T04:56:32;15.43;;;12.15;;
28427;SDS011;15662;49.128;8.520;2023-03-16T04:59:04;13.13;;;11.60;;
28427;SDS011;15662;49.128;8.520;2023-03-16T05:01:42;14.90;;;11.20;;
28427;SDS011;15662;49.128;8.520;2023-03-16T05:04:12;13.70;;;11.30;;
28427;SDS011;15662;49.128;8.520;2023-03-16T05:06:46;12.77;;;10.85;;
28427;SDS011;15662;49.128;8.520;2023-03-16T05:09:15;14.07;;;11.13;;
28427;SDS011;15662;49.128;8.520;2023-03-16T05:11:43;14.82;;;11.07;;
28427;SDS011;15662;49.128;8.520;2023-03-16T05:14:11;14.02;;;11.40;;
28427;SDS011;15662;49.128;8.520;2023-03-16T05:16:53;12.93;;;10.70;;
28427;SDS011;15662;49.128;8.520;2023-03-16T05:19:21;13.35;;;11.10;;
28427;SDS011;15662;49.128;8.520;2023-03-16T05:21:49;13.57;;;10.90;;
28427;SDS011;15662;49.128;8.520;2023-03-16T05:24:17;14.45;;;10.68;;
28427;SDS011;15662;49.128;8.520;2023-03-16T05:26:46;13.38;;;10.95;;
28427;SDS011;15662;49.128;8.520;2023-03-16T05:29:15;11.95;;;10.40;;
28427;SDS011;15662;49.128;8.520;2023-03-16T05:31:45;13.02;;;9.85;;
28427;SDS011;15662;49.128;8.520;2023-03-16T05:34:16;10.90;;;9.50;;
28427;SDS011;15662;49.128;8.520;2023-03-16T05:36:44;14.15;;;9.30;;
28427;SDS011;15662;49.128;8.520;2023-03-16T05:39:16;12.50;;;9.82;;
28427;SDS011;15662;49.128;8.520;2023-03-16T05:41:47;8.03;;;6.93;;
28427;SDS011;15662;49.128;8.520;2023-03-16T05:44:25;12.27;;;9.70;;
28427;SDS011;15662;49.128;8.520;2023-03-16T05:47:19;10.60;;;8.68;;
28427;SDS011;15662;49.128;8.520;2023-03-16T05:49:53;12.02;;;9.65;;
28427;SDS011;15662;49.128;8.520;2023-03-16T05:52:29;13.02;;;9.75;;
28427;SDS011;15662;49.128;8.520;2023-03-16T05:55:02;13.38;;;9.68;;
28427;SDS011;15662;49.128;8.520;2023-03-16T05:57:33;12.02;;;9.40;;
28427;SDS011;15662;49.128;8.520;2023-03-16T06:00:03;10.35;;;9.20;;
28427;SDS011;15662;49.128;8.520;2023-03-16T06:02:47;13.20;;;10.05;;
28427;SDS011;15662;49.128;8.520;2023-03-16T06:05:19;12.55;;;9.90;;
28427;SDS011;15662;49.128;8.520;2023-03-16T06:07:53;11.00;;;9.43;;
28427;SDS011;15662;49.128;8.520;2023-03-16T06:10:22;11.50;;;9.52;;
28427;SDS011;15662;49.128;8.520;2023-03-16T06:12:54;12.90;;;10.20;;
28427;SDS011;15662;49.128;8.520;2023-03-16T06:15:25;11.60;;;9.48;;
28427;SDS011;15662;49.128;8.520;2023-03-16T06:17:58;13.35;;;9.95;;
28427;SDS011;15662;49.128;8.520;2023-03-16T06:20:27;11.93;;;9.65;;
28427;SDS011;15662;49.128;8.520;2023-03-16T06:22:55;13.02;;;10.15;;
28427;SDS011;15662;49.128;8.520;2023-03-16T06:25:24;11.82;;;9.48;;
28427;SDS011;15662;49.128;8.520;2023-03-16T06:27:52;14.48;;;10.20;;
28427;SDS011;15662;49.128;8.520;2023-03-16T06:30:24;14.70;;;10.13;;
28427;SDS011;15662;49.128;8.520;2023-03-16T06:32:54;15.43;;;10.77;;
28427;SDS011;15662;49.128;8.520;2023-03-16T06:35:23;15.48;;;10.27;;
28427;SDS011;15662;49.128;8.520;2023-03-16T06:38:08;13.00;;;9.35;;
28427;SDS011;15662;49.128;8.520;2023-03-16T06:40:53;11.57;;;8.68;;
28427;SDS011;15662;49.128;8.520;2023-03-16T06:43:22;10.90;;;8.10;;
28427;SDS011;15662;49.128;8.520;2023-03-16T06:45:51;9.98;;;7.82;;
28427;SDS011;15662;49.128;8.520;2023-03-16T06:48:21;9.95;;;7.38;;
28427;SDS011;15662;49.128;8.520;2023-03-16T06:50:48;8.52;;;7.35;;
28427;SDS011;15662;49.128;8.520;2023-03-16T06:53:21;10.13;;;7.70;;
28427;SDS011;15662;49.128;8.520;2023-03-16T06:55:52;11.63;;;8.50;;
28427;SDS011;15662;49.128;8.520;2023-03-16T06:58:20;14.25;;;8.88;;
28427;SDS011;15662;49.128;8.520;2023-03-16T07:00:48;13.05;;;8.95;;
28427;SDS011;15662;49.128;8.520;2023-03-16T07:03:19;13.65;;;9.32;;
28427;SDS011;15662;49.128;8.520;2023-03-16T07:05:53;9.57;;;7.82;;
28427;SDS011;15662;49.128;8.520;2023-03-16T07:08:22;13.07;;;8.18;;
28427;SDS011;15662;49.128;8.520;2023-03-16T07:10:54;9.40;;;7.97;;
28427;SDS011;15662;49.128;8.520;2023-03-16T07:13:24;10.20;;;8.52;;
28427;SDS011;15662;49.128;8.520;2023-03-16T07:15:52;9.63;;;8.40;;
28427;SDS011;15662;49.128;8.520;2023-03-16T07:18:22;11.75;;;8.65;;
28427;SDS011;15662;49.128;8.520;2023-03-16T07:20:52;9.52;;;7.93;;
28427;SDS011;15662;49.128;8.520;2023-03-16T07:23:23;9.27;;;7.78;;
28427;SDS011;15662;49.128;8.520;2023-03-16T07:25:56;10.95;;;8.63;;
28427;SDS011;15662;49.128;8.520;2023-03-16T07:28:25;10.23;;;8.07;;
28427;SDS011;15662;49.128;8.520;2023-03-16T07:30:56;11.10;;;8.07;;
28427;SDS011;15662;49.128;8.520;2023-03-16T07:33:38;10.23;;;8.25;;
28427;SDS011;15662;49.128;8.520;2023-03-16T07:36:12;10.82;;;8.35;;
28427;SDS011;15662;49.128;8.520;2023-03-16T07:38:46;8.93;;;8.02;;
28427;SDS011;15662;49.128;8.520;2023-03-16T07:41:13;9.52;;;7.70;;
28427;SDS011;15662;49.128;8.520;2023-03-16T07:43:41;10.20;;;8.13;;
28427;SDS011;15662;49.128;8.520;2023-03-16T07:46:14;11.35;;;8.13;;
28427;SDS011;15662;49.128;8.520;2023-03-16T07:48:44;9.77;;;7.97;;
28427;SDS011;15662;49.128;8.520;2023-03-16T07:51:15;8.32;;;7.43;;
28427;SDS011;15662;49.128;8.520;2023-03-16T07:53:46;9.07;;;7.43;;
28427;SDS011;15662;49.128;8.520;2023-03-16T07:56:21;8.98;;;7.47;;
28427;SDS011;15662;49.128;8.520;2023-03-16T07:58:55;8.80;;;7.35;;
28427;SDS011;15662;49.128;8.520;2023-03-16T08:01:22;9.13;;;7.30;;
28427;SDS011;15662;49.128;8.520;2023-03-16T08:03:50;9.65;;;7.30;;
28427;SDS011;15662;49.128;8.520;2023-03-16T08:06:19;9.02;;;6.70;;
28427;SDS011;15662;49.128;8.520;2023-03-16T08:08:47;9.82;;;7.20;;
28427;SDS011;15662;49.128;8.520;2023-03-16T08:11:23;14.52;;;7.88;;
28427;SDS011;15662;49.128;8.520;2023-03-16T08:13:56;7.53;;;6.30;;
28427;SDS011;15662;49.128;8.520;2023-03-16T08:17:05;8.40;;;5.97;;
28427;SDS011;15662;49.128;8.520;2023-03-16T08:19:36;6.93;;;6.13;;
28427;SDS011;15662;49.128;8.520;2023-03-16T08:22:07;6.25;;;5.65;;
28427;SDS011;15662;49.128;8.520;2023-03-16T08:24:39;7.57;;;6.30;;
28427;SDS011;15662;49.128;8.520;2023-03-16T08:27:10;7.20;;;6.03;;
28427;SDS011;15662;49.128;8.520;2023-03-16T08:29:44;6.78;;;6.10;;
28427;SDS011;15662;49.128;8.520;2023-03-16T08:32:16;6.32;;;5.45;;
28427;SDS011;15662;49.128;8.520;2023-03-16T08:34:45;6.35;;;5.70;;
28427;SDS011;15662;49.128;8.520;2023-03-16T08:37:13;7.05;;;5.55;;
28427;SDS011;15662;49.128;8.520;2023-03-16T08:39:45;7.43;;;5.95;;
28427;SDS011;15662;49.128;8.520;2023-03-16T08:42:16;6.10;;;5.50;;
28427;SDS011;15662;49.128;8.520;2023-03-16T08:44:50;6.93;;;5.43;;
28427;SDS011;15662;49.128;8.520;2023-03-16T08:47:23;8.50;;;6.15;;
28427;SDS011;15662;49.128;8.520;2023-03-16T08:49:53;7.70;;;5.32;;
28427;SDS011;15662;49.128;8.520;2023-03-16T08:52:21;6.40;;;5.15;;
28427;SDS011;15662;49.128;8.520;2023-03-16T08:54:49;5.03;;;4.57;;
28427;SDS011;15662;49.128;8.520;2023-03-16T08:57:30;5.05;;;4.45;;
28427;SDS011;15662;49.128;8.520;2023-03-16T09:00:01;5.90;;;5.38;;
28427;SDS011;15662;49.128;8.520;2023-03-16T09:02:41;6.05;;;5.30;;
28427;SDS011;15662;49.128;8.520;2023-03-16T09:05:10;5.05;;;4.50;;
28427;SDS011;15662;49.128;8.520;2023-03-16T09:07:42;5.22;;;4.68;;
28427;SDS011;15662;49.128;8.520;2023-03-16T09:10:10;5.13;;;4.63;;
28427;SDS011;15662;49.128;8.520;2023-03-16T09:12:44;5.65;;;4.20;;
28427;SDS011;15662;49.128;8.520;2023-03-16T09:15:11;5.40;;;4.45;;
28427;SDS011;15662;49.128;8.520;2023-03-16T09:17:40;5.85;;;4.30;;
28427;SDS011;15662;49.128;8.520;2023-03-16T09:20:11;4.50;;;4.07;;
28427;SDS011;15662;49.128;8.520;2023-03-16T09:22:55;4.38;;;3.97;;
28427;SDS011;15662;49.128;8.520;2023-03-16T09:25:25;4.57;;;4.00;;
28427;SDS011;15662;49.128;8.520;2023-03-16T09:27:53;5.13;;;4.30;;
28427;SDS011;15662;49.128;8.520;2023-03-16T09:30:27;5.10;;;4.40;;
28427;SDS011;15662;49.128;8.520;2023-03-16T09:32:55;5.88;;;4.30;;
28427;SDS011;15662;49.128;8.520;2023-03-16T09:35:25;4.60;;;4.03;;
28427;SDS011;15662;49.128;8.520;2023-03-16T09:37:53;6.75;;;4.40;;
28427;SDS011;15662;49.128;8.520;2023-03-16T09:40:33;5.35;;;4.70;;
28427;SDS011;15662;49.128;8.520;2023-03-16T09:46:14;8.82;;;5.65;;
28427;SDS011;15662;49.128;8.520;2023-03-16T09:48:57;5.72;;;4.20;;
28427;SDS011;15662;49.128;8.520;2023-03-16T09:54:39;5.93;;;3.45;;
28427;SDS011;15662;49.128;8.520;2023-03-16T09:57:27;4.20;;;3.80;;
28427;SDS011;15662;49.128;8.520;2023-03-16T10:00:23;5.65;;;3.80;;
28427;SDS011;15662;49.128;8.520;2023-03-16T10:05:52;6.15;;;4.22;;
28427;SDS011;15662;49.128;8.520;2023-03-16T10:08:42;5.15;;;4.18;;
28427;SDS011;15662;49.128;8.520;2023-03-16T10:11:45;5.15;;;4.65;;
28427;SDS011;15662;49.128;8.520;2023-03-16T10:14:26;4.32;;;3.65;;
28427;SDS011;15662;49.128;8.520;2023-03-16T10:17:16;4.70;;;3.60;;
28427;SDS011;15662;49.128;8.520;2023-03-16T10:20:05;4.93;;;3.67;;
28427;SDS011;15662;49.128;8.520;2023-03-16T10:22:41;5.10;;;3.60;;
28427;SDS011;15662;49.128;8.520;2023-03-16T10:27:50;4.63;;;3.80;;
28427;SDS011;15662;49.128;8.520;2023-03-16T10:30:30;3.70;;;3.33;;
28427;SDS011;15662;49.128;8.520;2023-03-16T10:33:15;5.22;;;3.85;;
28427;SDS011;15662;49.128;8.520;2023-03-16T10:38:56;5.90;;;4.95;;
28427;SDS011;15662;49.128;8.520;2023-03-16T10:41:37;6.63;;;3.67;;
28427;SDS011;15662;49.128;8.520;2023-03-16T10:46:57;3.70;;;3.33;;
28427;SDS011;15662;49.128;8.520;2023-03-16T10:49:27;8.50;;;5.47;;
28427;SDS011;15662;49.128;8.520;2023-03-16T10:52:05;4.60;;;3.30;;
28427;SDS011;15662;49.128;8.520;2023-03-16T10:54:54;4.50;;;3.40;;
28427;SDS011;15662;49.128;8.520;2023-03-16T10:57:30;4.68;;;3.30;;
28427;SDS011;15662;49.128;8.520;2023-03-16T11:00:06;4.35;;;3.40;;
28427;SDS011;15662;49.128;8.520;2023-03-16T11:02:38;4.35;;;3.53;;
28427;SDS011;15662;49.128;8.520;2023-03-16T11:08:12;3.97;;;2.92;;
28427;SDS011;15662;49.128;8.520;2023-03-16T11:10:53;3.88;;;3.47;;
28427;SDS011;15662;49.128;8.520;2023-03-16T11:13:32;3.77;;;3.43;;
28427;SDS011;15662;49.128;8.520;2023-03-16T11:18:57;4.68;;;3.42;;
28427;SDS011;15662;49.128;8.520;2023-03-16T11:21:42;3.58;;;3.08;;
28427;SDS011;15662;49.128;8.520;2023-03-16T11:30:36;4.90;;;3.03;;
28427;SDS011;15662;49.128;8.520;2023-03-16T11:33:13;2.88;;;2.63;;
28427;SDS011;15662;49.128;8.520;2023-03-16T11:35:52;3.28;;;2.72;;
28427;SDS011;15662;49.128;8.520;2023-03-16T11:41:32;2.35;;;2.15;;
28427;SDS011;15662;49.128;8.520;2023-03-16T11:44:46;3.78;;;2.30;;
28427;SDS011;15662;49.128;8.520;2023-03-16T11:50:51;3.00;;;2.22;;
28427;SDS011;15662;49.128;8.520;2023-03-16T11:53:45;2.30;;;2.10;;
28427;SDS011;15662;49.128;8.520;2023-03-16T11:56:31;1.98;;;1.83;;
28427;SDS011;15662;49.128;8.520;2023-03-16T12:08:28;2.08;;;1.98;;
28427;SDS011;15662;49.128;8.520;2023-03-16T12:11:33;2.50;;;2.30;;
28427;SDS011;15662;49.128;8.520;2023-03-16T12:14:23;3.38;;;2.30;;
28427;SDS011;15662;49.128;8.520;2023-03-16T12:17:03;2.78;;;2.30;;
28427;SDS011;15662;49.128;8.520;2023-03-16T12:22:41;3.65;;;2.00;;
28427;SDS011;15662;49.128;8.520;2023-03-16T12:25:42;1.90;;;1.80;;
28427;SDS011;15662;49.128;8.520;2023-03-16T12:28:20;5.22;;;2.30;;
28427;SDS011;15662;49.128;8.520;2023-03-16T12:36:59;2.40;;;1.85;;
28427;SDS011;15662;49.128;8.520;2023-03-16T12:40:01;2.50;;;2.20;;
28427;SDS011;15662;49.128;8.520;2023-03-16T12:42:59;4.97;;;1.90;;
28427;SDS011;15662;49.128;8.520;2023-03-16T12:45:59;2.60;;;2.15;;
28427;SDS011;15662;49.128;8.520;2023-03-16T12:48:46;2.97;;;2.00;;
28427;SDS011;15662;49.128;8.520;2023-03-16T12:51:31;2.33;;;1.88;;
28427;SDS011;15662;49.128;8.520;2023-03-16T12:54:04;2.05;;;1.88;;
28427;SDS011;15662;49.128;8.520;2023-03-16T12:56:45;2.25;;;1.70;;
28427;SDS011;15662;49.128;8.520;2023-03-16T12:59:20;2.13;;;2.00;;
28427;SDS011;15662;49.128;8.520;2023-03-16T13:01:56;2.28;;;2.08;;
28427;SDS011;15662;49.128;8.520;2023-03-16T13:04:37;2.25;;;2.00;;
28427;SDS011;15662;49.128;8.520;2023-03-16T13:07:15;2.30;;;1.90;;
28427;SDS011;15662;49.128;8.520;2023-03-16T13:09:57;1.70;;;1.58;;
28427;SDS011;15662;49.128;8.520;2023-03-16T13:12:37;2.22;;;1.55;;
28427;SDS011;15662;49.128;8.520;2023-03-16T13:17:48;2.03;;;1.77;;
28427;SDS011;15662;49.128;8.520;2023-03-16T13:20:34;2.00;;;1.80;;
28427;SDS011;15662;49.128;8.520;2023-03-16T13:29:18;1.90;;;1.67;;
28427;SDS011;15662;49.128;8.520;2023-03-16T13:31:55;1.60;;;1.50;;
28427;SDS011;15662;49.128;8.520;2023-03-16T13:34:30;1.67;;;1.58;;
28427;SDS011;15662;49.128;8.520;2023-03-16T13:37:11;1.80;;;1.60;;
28427;SDS011;15662;49.128;8.520;2023-03-16T13:39:50;1.60;;;1.50;;
28427;SDS011;15662;49.128;8.520;2023-03-16T13:42:21;1.90;;;1.48;;
28427;SDS011;15662;49.128;8.520;2023-03-16T13:44:52;1.77;;;1.33;;
28427;SDS011;15662;49.128;8.520;2023-03-16T13:47:25;1.73;;;1.60;;
28427;SDS011;15662;49.128;8.520;2023-03-16T13:49:54;1.83;;;1.73;;
28427;SDS011;15662;49.128;8.520;2023-03-16T13:52:26;3.10;;;1.65;;
28427;SDS011;15662;49.128;8.520;2023-03-16T13:55:13;2.08;;;1.65;;
28427;SDS011;15662;49.128;8.520;2023-03-16T13:57:44;1.55;;;1.45;;
28427;SDS011;15662;49.128;8.520;2023-03-16T14:02:45;4.57;;;1.80;;
28427;SDS011;15662;49.128;8.520;2023-03-16T14:05:22;2.00;;;1.77;;
28427;SDS011;15662;49.128;8.520;2023-03-16T14:07:57;1.83;;;1.40;;
28427;SDS011;15662;49.128;8.520;2023-03-16T14:10:30;1.63;;;1.50;;
28427;SDS011;15662;49.128;8.520;2023-03-16T14:13:08;2.75;;;1.73;;
28427;SDS011;15662;49.128;8.520;2023-03-16T14:16:01;1.83;;;1.67;;
28427;SDS011;15662;49.128;8.520;2023-03-16T14:18:40;2.00;;;1.45;;
28427;SDS011;15662;49.128;8.520;2023-03-16T14:21:15;2.08;;;1.60;;
28427;SDS011;15662;49.128;8.520;2023-03-16T14:23:52;1.95;;;1.40;;
28427;SDS011;15662;49.128;8.520;2023-03-16T14:26:37;1.45;;;1.30;;
28427;SDS011;15662;49.128;8.520;2023-03-16T14:29:16;1.98;;;1.50;;
28427;SDS011;15662;49.128;8.520;2023-03-16T14:31:53;1.88;;;1.77;;
28427;SDS011;15662;49.128;8.520;2023-03-16T14:34:34;2.03;;;1.50;;
28427;SDS011;15662;49.128;8.520;2023-03-16T14:37:14;1.98;;;1.50;;
28427;SDS011;15662;49.128;8.520;2023-03-16T14:39:56;2.95;;;1.70;;
28427;SDS011;15662;49.128;8.520;2023-03-16T14:42:29;2.38;;;1.73;;
28427;SDS011;15662;49.128;8.520;2023-03-16T14:44:58;2.15;;;1.70;;
28427;SDS011;15662;49.128;8.520;2023-03-16T14:47:37;4.22;;;1.80;;
28427;SDS011;15662;49.128;8.520;2023-03-16T14:50:11;2.97;;;1.77;;
28427;SDS011;15662;49.128;8.520;2023-03-16T14:52:52;2.60;;;1.40;;
28427;SDS011;15662;49.128;8.520;2023-03-16T14:55:22;1.70;;;1.60;;
28427;SDS011;15662;49.128;8.520;2023-03-16T14:57:51;1.95;;;1.70;;
28427;SDS011;15662;49.128;8.520;2023-03-16T15:00:19;2.40;;;1.70;;
28427;SDS011;15662;49.128;8.520;2023-03-16T15:03:09;2.00;;;1.77;;
28427;SDS011;15662;49.128;8.520;2023-03-16T15:05:42;3.08;;;1.75;;
28427;SDS011;15662;49.128;8.520;2023-03-16T15:08:24;1.98;;;1.55;;
28427;SDS011;15662;49.128;8.520;2023-03-16T15:10:59;3.40;;;1.75;;
28427;SDS011;15662;49.128;8.520;2023-03-16T15:13:32;2.55;;;1.77;;
28427;SDS011;15662;49.128;8.520;2023-03-16T15:16:08;3.22;;;1.88;;
28427;SDS011;15662;49.128;8.520;2023-03-16T15:18:38;1.65;;;1.55;;
28427;SDS011;15662;49.128;8.520;2023-03-16T15:21:10;1.60;;;1.50;;
28427;SDS011;15662;49.128;8.520;2023-03-16T15:23:44;1.85;;;1.65;;
28427;SDS011;15662;49.128;8.520;2023-03-16T15:26:14;2.75;;;1.80;;
28427;SDS011;15662;49.128;8.520;2023-03-16T15:28:51;3.45;;;1.55;;
28427;SDS011;15662;49.128;8.520;2023-03-16T15:31:23;2.17;;;1.98;;
28427;SDS011;15662;49.128;8.520;2023-03-16T15:36:23;2.53;;;1.92;;
28427;SDS011;15662;49.128;8.520;2023-03-16T15:38:52;4.75;;;2.97;;
28427;SDS011;15662;49.128;8.520;2023-03-16T15:41:21;4.32;;;2.20;;
28427;SDS011;15662;49.128;8.520;2023-03-16T15:43:56;3.65;;;2.00;;
28427;SDS011;15662;49.128;8.520;2023-03-16T15:46:27;2.92;;;2.20;;
28427;SDS011;15662;49.128;8.520;2023-03-16T15:48:54;3.03;;;2.03;;
28427;SDS011;15662;49.128;8.520;2023-03-16T15:51:25;3.05;;;2.05;;
28427;SDS011;15662;49.128;8.520;2023-03-16T15:53:56;3.30;;;1.90;;
28427;SDS011;15662;49.128;8.520;2023-03-16T15:56:28;2.75;;;2.22;;
28427;SDS011;15662;49.128;8.520;2023-03-16T15:59:30;2.25;;;1.67;;
28427;SDS011;15662;49.128;8.520;2023-03-16T16:02:29;1.77;;;1.63;;
28427;SDS011;15662;49.128;8.520;2023-03-16T16:05:00;2.67;;;2.22;;
28427;SDS011;15662;49.128;8.520;2023-03-16T16:07:28;3.10;;;1.88;;
28427;SDS011;15662;49.128;8.520;2023-03-16T16:09:57;2.35;;;1.50;;
28427;SDS011;15662;49.128;8.520;2023-03-16T16:12:25;4.50;;;1.77;;
28427;SDS011;15662;49.128;8.520;2023-03-16T16:14:56;2.00;;;1.80;;
28427;SDS011;15662;49.128;8.520;2023-03-16T16:17:24;2.97;;;1.85;;
28427;SDS011;15662;49.128;8.520;2023-03-16T16:20:18;2.45;;;2.15;;
28427;SDS011;15662;49.128;8.520;2023-03-16T16:22:55;6.55;;;3.65;;
28427;SDS011;15662;49.128;8.520;2023-03-16T16:25:36;7.03;;;3.08;;
28427;SDS011;15662;49.128;8.520;2023-03-16T16:28:11;4.13;;;2.53;;
28427;SDS011;15662;49.128;8.520;2023-03-16T16:30:46;3.33;;;2.10;;
28427;SDS011;15662;49.128;8.520;2023-03-16T16:33:28;1.95;;;1.83;;
28427;SDS011;15662;49.128;8.520;2023-03-16T16:36:05;2.92;;;1.95;;
28427;SDS011;15662;49.128;8.520;2023-03-16T16:38:40;3.60;;;2.00;;
28427;SDS011;15662;49.128;8.520;2023-03-16T16:41:08;7.55;;;2.80;;
28427;SDS011;15662;49.128;8.520;2023-03-16T16:44:03;2.13;;;1.80;;
28427;SDS011;15662;49.128;8.520;2023-03-16T16:46:37;2.40;;;2.05;;